createdAt,value
2017-09-26T00:01:57.943Z,86.36
2017-09-26T00:04:25.346Z,86.13
2017-09-26T00:06:52.742Z,86.83
2017-09-26T00:09:20.143Z,86.39
2017-09-26T00:11:47.545Z,86.72
2017-09-26T00:14:14.938Z,87.24
2017-09-26T00:16:42.343Z,87.30
2017-09-26T00:19:09.744Z,87.79
2017-09-26T00:21:37.152Z,87.51
2017-09-26T00:24:04.554Z,87.68
2017-09-26T00:26:31.964Z,88.24
2017-09-26T00:28:59.383Z,88.30
2017-09-26T00:31:26.800Z,88.00
2017-09-26T00:33:54.204Z,87.20
2017-09-26T00:36:21.611Z,86.80
2017-09-26T00:38:50.835Z,87.07
2017-09-26T00:41:18.240Z,87.33
2017-09-26T00:43:45.635Z,87.11
2017-09-26T00:46:13.034Z,86.45
2017-09-26T00:48:40.441Z,87.07
2017-09-26T00:51:07.946Z,87.26
2017-09-26T00:53:35.337Z,87.04
2017-09-26T00:56:02.735Z,86.97
2017-09-26T00:58:30.135Z,86.34
2017-09-26T01:00:57.528Z,86.07
2017-09-26T01:03:24.935Z,84.56
2017-09-26T01:05:53.093Z,83.80
2017-09-26T01:08:20.495Z,83.26
2017-09-26T01:10:47.893Z,83.29
2017-09-26T01:13:15.294Z,84.04
2017-09-26T01:15:42.686Z,85.09
2017-09-26T01:18:10.086Z,85.24
2017-09-26T01:20:37.489Z,84.80
2017-09-26T01:23:04.899Z,85.83
2017-09-26T01:25:32.300Z,86.30
2017-09-26T01:27:59.701Z,85.79
2017-09-26T01:30:27.096Z,85.38
2017-09-26T01:32:54.603Z,85.23
2017-09-26T01:35:21.990Z,85.51
2017-09-26T01:37:49.403Z,85.38
2017-09-26T01:40:16.796Z,85.16
2017-09-26T01:42:44.199Z,85.04
2017-09-26T01:45:11.595Z,84.40
2017-09-26T01:47:39.059Z,84.35
2017-09-26T01:50:06.452Z,84.06
2017-09-26T01:52:33.850Z,84.20
2017-09-26T01:55:01.243Z,84.22
2017-09-26T01:57:30.967Z,84.65
2017-09-26T01:59:59.262Z,85.58
2017-09-26T02:02:26.755Z,86.30
2017-09-26T02:04:54.138Z,86.47
2017-09-26T02:07:21.535Z,86.92
2017-09-26T02:09:48.933Z,86.39
2017-09-26T02:12:16.328Z,86.66
2017-09-26T02:14:43.725Z,85.89
2017-09-26T02:17:11.124Z,85.45
2017-09-26T02:19:38.545Z,85.19
2017-09-26T02:22:05.938Z,84.28
2017-09-26T02:24:33.353Z,83.78
2017-09-26T02:27:00.742Z,83.54
2017-09-26T02:29:28.155Z,83.01
2017-09-26T02:31:55.542Z,83.39
2017-09-26T02:34:22.952Z,83.98
2017-09-26T02:36:50.342Z,83.92
2017-09-26T02:39:17.782Z,83.22
2017-09-26T02:41:45.171Z,83.24
2017-09-26T02:44:12.570Z,83.74
2017-09-26T02:46:39.969Z,83.80
2017-09-26T02:49:07.386Z,84.26
2017-09-26T02:51:34.770Z,84.35
2017-09-26T02:54:02.162Z,84.18
2017-09-26T02:56:29.566Z,84.56
2017-09-26T02:58:56.959Z,84.57
2017-09-26T03:01:24.362Z,84.44
2017-09-26T03:03:51.763Z,83.47
2017-09-26T03:06:19.167Z,82.94
2017-09-26T03:08:46.563Z,83.49
2017-09-26T03:11:13.959Z,84.53
2017-09-26T03:13:41.355Z,83.98
2017-09-26T03:16:08.754Z,83.67
2017-09-26T03:18:36.181Z,83.62
2017-09-26T03:21:03.583Z,83.85
2017-09-26T03:23:30.978Z,83.08
2017-09-26T03:25:58.374Z,83.10
2017-09-26T03:28:25.766Z,83.95
2017-09-26T03:30:53.166Z,84.45
2017-09-26T03:33:20.558Z,84.45
2017-09-26T03:35:48.937Z,84.29
2017-09-26T03:38:16.330Z,83.84
2017-09-26T03:40:43.740Z,83.49
2017-09-26T03:43:11.130Z,83.78
2017-09-26T03:45:38.530Z,83.64
2017-09-26T03:48:05.927Z,83.51
2017-09-26T03:50:33.321Z,84.53
2017-09-26T03:53:00.721Z,84.82
2017-09-26T03:55:28.107Z,84.02
2017-09-26T03:57:55.510Z,82.80
2017-09-26T04:00:22.906Z,83.15
2017-09-26T04:02:50.311Z,83.16
2017-09-26T04:05:17.703Z,82.99
2017-09-26T04:07:45.102Z,83.45
2017-09-26T04:10:12.491Z,83.77
2017-09-26T04:12:39.894Z,84.83
2017-09-26T04:15:07.296Z,85.04
2017-09-26T04:17:34.727Z,85.94
2017-09-26T04:20:02.128Z,86.02
2017-09-26T04:22:29.526Z,85.55
2017-09-26T04:24:56.923Z,85.48
2017-09-26T04:27:24.323Z,85.17
2017-09-26T04:29:51.716Z,84.65
2017-09-26T04:32:19.116Z,84.48
2017-09-26T04:34:46.510Z,84.24
2017-09-26T04:37:13.911Z,84.26
2017-09-26T04:39:41.308Z,84.17
2017-09-26T04:42:08.704Z,84.35
2017-09-26T04:44:36.106Z,83.63
2017-09-26T04:47:03.594Z,84.14
2017-09-26T04:49:30.990Z,84.38
2017-09-26T04:51:58.411Z,85.12
2017-09-26T04:54:25.808Z,85.35
2017-09-26T04:56:53.198Z,85.04
2017-09-26T04:59:20.609Z,86.00
2017-09-26T05:01:48.003Z,85.15
2017-09-26T05:04:15.403Z,84.54
2017-09-26T05:06:42.801Z,84.02
2017-09-26T05:09:10.207Z,83.66
2017-09-26T05:11:37.600Z,83.69
2017-09-26T05:14:04.998Z,84.27
2017-09-26T05:16:32.402Z,84.01
2017-09-26T05:18:59.819Z,84.03
2017-09-26T05:21:27.270Z,83.60
2017-09-26T05:23:54.679Z,84.48
2017-09-26T05:26:22.071Z,85.05
2017-09-26T05:28:49.470Z,84.76
2017-09-26T05:31:16.867Z,84.24
2017-09-26T05:33:44.262Z,84.56
2017-09-26T05:36:11.659Z,84.96
2017-09-26T05:38:39.131Z,85.26
2017-09-26T05:41:06.523Z,84.69
2017-09-26T05:43:33.914Z,85.09
2017-09-26T05:46:01.423Z,85.47
2017-09-26T05:48:28.880Z,85.62
2017-09-26T05:50:56.283Z,86.00
2017-09-26T05:53:23.673Z,86.32
2017-09-26T05:55:51.070Z,85.80
2017-09-26T05:58:18.488Z,86.18
2017-09-26T06:00:45.886Z,85.31
2017-09-26T06:03:13.288Z,85.43
2017-09-26T06:05:40.690Z,85.60
2017-09-26T06:08:08.091Z,86.09
2017-09-26T06:10:35.491Z,86.40
2017-09-26T06:13:02.890Z,86.64
2017-09-26T06:15:30.292Z,86.65
2017-09-26T06:17:57.750Z,87.70
2017-09-26T06:20:25.151Z,86.99
2017-09-26T06:22:52.548Z,86.85
2017-09-26T06:25:19.954Z,87.25
2017-09-26T06:27:47.351Z,87.39
2017-09-26T06:30:14.754Z,87.26
2017-09-26T06:32:42.151Z,86.78
2017-09-26T06:35:09.539Z,86.74
2017-09-26T06:37:36.942Z,87.44
2017-09-26T06:40:04.339Z,87.85
2017-09-26T06:42:31.752Z,87.83
2017-09-26T06:44:59.142Z,87.99
2017-09-26T06:47:26.541Z,87.91
2017-09-26T06:49:53.938Z,88.21
2017-09-26T06:52:21.334Z,88.77
2017-09-26T06:54:48.730Z,88.20
2017-09-26T06:57:16.127Z,87.77
2017-09-26T06:59:43.523Z,87.35
2017-09-26T07:02:10.932Z,86.84
2017-09-26T07:04:38.334Z,86.40
2017-09-26T07:07:05.750Z,85.93
2017-09-26T07:09:33.142Z,86.28
2017-09-26T07:12:00.551Z,85.98
2017-09-26T07:14:27.942Z,86.01
2017-09-26T07:16:55.343Z,86.32
2017-09-26T07:19:22.734Z,86.50
2017-09-26T07:21:50.134Z,86.64
2017-09-26T07:24:17.526Z,86.56
2017-09-26T07:26:44.930Z,86.25
2017-09-26T07:29:12.350Z,86.34
2017-09-26T07:31:39.767Z,86.39
2017-09-26T07:34:07.150Z,86.33
2017-09-26T07:36:34.552Z,86.07
2017-09-26T07:39:01.951Z,85.86
2017-09-26T07:41:29.343Z,85.90
2017-09-26T07:43:56.742Z,85.93
2017-09-26T07:46:24.135Z,85.34
2017-09-26T07:48:51.538Z,86.22
2017-09-26T07:51:18.930Z,85.70
2017-09-26T07:53:46.412Z,84.89
2017-09-26T07:56:13.800Z,85.60
2017-09-26T07:58:41.198Z,85.05
2017-09-26T08:01:08.734Z,84.88
2017-09-26T08:03:36.231Z,83.82
2017-09-26T08:06:03.750Z,84.14
2017-09-26T08:08:31.274Z,83.87
2017-09-26T08:10:58.714Z,83.41
2017-09-26T08:13:26.114Z,83.88
2017-09-26T08:15:53.526Z,82.50
2017-09-26T08:18:20.930Z,82.83
2017-09-26T08:20:48.322Z,82.43
2017-09-26T08:23:15.723Z,82.47
2017-09-26T08:25:43.118Z,81.17
2017-09-26T08:28:10.515Z,82.01
2017-09-26T08:30:37.914Z,80.61
2017-09-26T08:33:05.310Z,81.89
2017-09-26T08:35:32.710Z,81.61
2017-09-26T08:38:00.109Z,82.11
2017-09-26T08:40:27.515Z,81.25
2017-09-26T08:42:54.930Z,81.53
2017-09-26T08:45:22.390Z,80.26
2017-09-26T08:47:49.839Z,80.95
2017-09-26T08:50:17.234Z,79.22
2017-09-26T08:52:44.669Z,79.23
2017-09-26T08:55:12.050Z,80.06
2017-09-26T08:57:39.462Z,80.40
2017-09-26T09:00:06.862Z,80.14
2017-09-26T09:02:34.258Z,80.16
2017-09-26T09:05:01.661Z,80.29
2017-09-26T09:07:29.059Z,80.02
2017-09-26T09:09:56.451Z,79.41
2017-09-26T09:12:23.917Z,78.67
2017-09-26T09:14:51.308Z,79.59
2017-09-26T09:17:18.703Z,79.27
2017-09-26T09:19:46.102Z,79.28
2017-09-26T09:22:13.496Z,78.58
2017-09-26T09:24:40.903Z,78.84
2017-09-26T09:27:08.296Z,78.74
2017-09-26T09:29:35.694Z,78.90
2017-09-26T09:32:03.091Z,79.67
2017-09-26T09:34:30.599Z,78.93
2017-09-26T09:36:57.990Z,79.57
2017-09-26T09:39:25.403Z,78.50
2017-09-26T09:41:52.795Z,76.96
2017-09-26T09:44:20.190Z,77.75
2017-09-26T09:46:47.596Z,78.38
2017-09-26T09:49:14.995Z,77.65
2017-09-26T09:51:42.400Z,77.69
2017-09-26T09:54:09.795Z,78.46
2017-09-26T09:56:37.191Z,78.38
2017-09-26T09:59:04.583Z,78.39
2017-09-26T10:01:31.984Z,78.43
2017-09-26T10:03:59.378Z,78.83
2017-09-26T10:06:26.784Z,78.84
2017-09-26T10:08:54.179Z,79.52
2017-09-26T10:11:21.633Z,79.76
2017-09-26T10:13:49.027Z,79.91
2017-09-26T10:16:16.418Z,81.05
2017-09-26T10:18:43.818Z,80.55
2017-09-26T10:21:11.221Z,80.30
2017-09-26T10:23:38.620Z,80.84
2017-09-26T10:26:06.014Z,80.98
2017-09-26T10:28:33.425Z,80.92
2017-09-26T10:31:00.814Z,82.35
2017-09-26T10:33:28.231Z,82.05
2017-09-26T10:35:55.626Z,81.96
2017-09-26T10:38:23.042Z,82.62
2017-09-26T10:40:50.438Z,81.69
2017-09-26T10:43:17.842Z,81.63
2017-09-26T10:45:45.242Z,82.66
2017-09-26T10:48:12.643Z,81.78
2017-09-26T10:50:40.031Z,82.11
2017-09-26T10:53:07.434Z,82.17
2017-09-26T10:55:34.838Z,81.05
2017-09-26T10:58:02.286Z,80.46
2017-09-26T11:00:29.750Z,80.87
2017-09-26T11:02:57.149Z,78.43
2017-09-26T11:05:24.564Z,78.37
2017-09-26T11:07:51.972Z,78.29
2017-09-26T11:10:19.354Z,79.64
2017-09-26T11:12:46.758Z,80.86
2017-09-26T11:15:14.156Z,80.85
2017-09-26T11:17:41.558Z,81.39
2017-09-26T11:20:08.959Z,82.40
2017-09-26T11:22:36.367Z,81.95
2017-09-26T11:25:03.767Z,81.72
2017-09-26T11:27:31.159Z,81.13
2017-09-26T11:29:58.625Z,81.81
2017-09-26T11:32:26.038Z,80.51
2017-09-26T11:34:53.435Z,79.99
2017-09-26T11:37:20.853Z,80.00
2017-09-26T11:39:48.338Z,80.28
2017-09-26T11:42:15.742Z,79.57
2017-09-26T11:44:43.142Z,79.65
2017-09-26T11:47:10.538Z,78.09
2017-09-26T11:49:37.942Z,78.10
2017-09-26T11:52:06.346Z,78.52
2017-09-26T11:54:33.746Z,77.46
2017-09-26T11:57:01.155Z,77.04
2017-09-26T11:59:28.554Z,76.39
2017-09-26T12:01:55.950Z,76.07
2017-09-26T12:04:23.354Z,76.30
2017-09-26T12:06:50.795Z,76.00
2017-09-26T12:11:42.595Z,73.81
2017-09-26T12:14:10.690Z,73.74
2017-09-26T12:16:38.082Z,73.86
2017-09-26T12:19:05.478Z,73.73
2017-09-26T12:21:32.967Z,74.91
2017-09-26T12:24:00.366Z,76.20
2017-09-26T12:26:27.767Z,76.72
2017-09-26T12:28:55.155Z,76.54
2017-09-26T12:31:22.557Z,76.46
2017-09-26T12:33:49.946Z,77.18
2017-09-26T12:36:17.346Z,78.22
2017-09-26T12:38:44.742Z,77.44
2017-09-26T12:41:12.146Z,76.64
2017-09-26T12:43:39.538Z,76.89
2017-09-26T12:46:06.938Z,75.96
2017-09-26T12:48:34.445Z,75.91
2017-09-26T12:51:01.847Z,75.66
2017-09-26T12:53:29.239Z,75.21
2017-09-26T12:55:56.643Z,74.20
2017-09-26T12:58:24.169Z,74.47
2017-09-26T13:00:51.566Z,74.63
2017-09-26T13:03:19.018Z,75.04
2017-09-26T13:05:46.466Z,74.14
2017-09-26T13:08:13.866Z,74.40
2017-09-26T13:10:41.267Z,73.97
2017-09-26T13:13:08.666Z,74.51
2017-09-26T13:15:36.070Z,73.72
2017-09-26T13:18:03.463Z,73.52
2017-09-26T13:20:30.862Z,74.24
2017-09-26T13:22:58.254Z,74.20
2017-09-26T13:25:25.654Z,73.35
2017-09-26T13:27:53.062Z,73.33
2017-09-26T13:30:20.532Z,74.25
2017-09-26T13:32:47.955Z,73.51
2017-09-26T13:35:15.350Z,74.61
2017-09-26T13:37:42.752Z,74.90
2017-09-26T13:40:10.140Z,73.78
2017-09-26T13:42:37.542Z,72.87
2017-09-26T13:45:04.934Z,72.93
2017-09-26T13:47:32.356Z,72.89
2017-09-26T13:49:59.754Z,73.69
2017-09-26T13:52:27.151Z,72.33
2017-09-26T13:54:54.542Z,72.54
2017-09-26T13:57:21.943Z,72.23
2017-09-26T13:59:49.334Z,71.68
2017-09-26T14:02:16.745Z,70.76
2017-09-26T14:04:44.146Z,70.92
2017-09-26T14:07:11.547Z,70.67
2017-09-26T14:09:39.040Z,69.71
2017-09-26T14:12:06.443Z,70.53
2017-09-26T14:14:33.939Z,69.51
2017-09-26T14:17:01.331Z,67.96
2017-09-26T14:19:28.768Z,69.01
2017-09-26T14:21:56.154Z,68.34
2017-09-26T14:24:23.556Z,68.57
2017-09-26T14:26:50.954Z,68.19
2017-09-26T14:29:18.373Z,68.41
2017-09-26T14:31:45.770Z,68.27
2017-09-26T14:34:13.203Z,68.23
2017-09-26T14:36:40.605Z,68.39
2017-09-26T14:39:08.005Z,68.15
2017-09-26T14:41:35.398Z,69.60
2017-09-26T14:44:02.794Z,68.82
2017-09-26T14:46:30.190Z,68.82
2017-09-26T14:48:57.597Z,69.40
2017-09-26T14:51:24.987Z,70.15
2017-09-26T14:53:52.390Z,70.20
2017-09-26T14:56:19.782Z,70.42
2017-09-26T14:58:47.190Z,70.83
2017-09-26T15:01:14.586Z,70.41
2017-09-26T15:03:41.986Z,70.48
2017-09-26T15:06:09.383Z,70.14
2017-09-26T15:08:36.785Z,70.38
2017-09-26T15:11:04.178Z,69.77
2017-09-26T15:13:31.688Z,70.53
2017-09-26T15:15:59.082Z,69.68
2017-09-26T15:18:26.482Z,69.79
2017-09-26T15:20:53.920Z,69.29
2017-09-26T15:23:21.413Z,69.19
2017-09-26T15:25:48.872Z,69.40
2017-09-26T15:28:16.269Z,70.21
2017-09-26T15:30:43.673Z,70.07
2017-09-26T15:33:11.147Z,70.79
2017-09-26T15:35:38.535Z,70.90
2017-09-26T15:38:05.934Z,69.97
2017-09-26T15:40:33.402Z,69.56
2017-09-26T15:43:00.799Z,70.08
2017-09-26T15:45:28.214Z,69.36
2017-09-26T15:47:55.607Z,69.15
2017-09-26T15:50:23.014Z,69.96
2017-09-26T15:52:50.496Z,70.27
2017-09-26T15:55:17.885Z,69.95
2017-09-26T15:57:45.282Z,70.97
2017-09-26T16:00:12.685Z,72.00
2017-09-26T16:02:40.094Z,71.46
2017-09-26T16:05:07.495Z,72.10
2017-09-26T16:07:34.898Z,71.17
2017-09-26T16:10:02.299Z,71.27
2017-09-26T16:12:29.717Z,71.78
2017-09-26T16:14:57.099Z,72.00
2017-09-26T16:17:24.522Z,72.42
2017-09-26T16:19:52.006Z,72.90
2017-09-26T16:22:19.402Z,72.81
2017-09-26T16:24:46.809Z,72.65
2017-09-26T16:27:14.203Z,72.21
2017-09-26T16:29:41.610Z,72.45
2017-09-26T16:32:09.007Z,72.05
2017-09-26T16:34:36.407Z,71.93
2017-09-26T16:37:03.807Z,71.61
2017-09-26T16:39:31.199Z,71.79
2017-09-26T16:41:58.603Z,71.95
2017-09-26T16:44:26.010Z,71.92
2017-09-26T16:46:53.522Z,72.63
2017-09-26T16:49:20.987Z,72.65
2017-09-26T16:51:48.383Z,72.43
2017-09-26T16:54:15.786Z,72.86
2017-09-26T16:56:43.194Z,73.12
2017-09-26T16:59:10.624Z,73.21
2017-09-26T17:01:38.007Z,72.97
2017-09-26T17:04:05.398Z,72.86
2017-09-26T17:06:32.806Z,72.07
2017-09-26T17:09:00.222Z,71.66
2017-09-26T17:11:27.620Z,73.14
2017-09-26T17:13:55.045Z,73.01
2017-09-26T17:16:22.423Z,73.18
2017-09-26T17:18:49.822Z,73.19
2017-09-26T17:21:17.298Z,72.93
2017-09-26T17:23:44.702Z,73.35
2017-09-26T17:26:12.110Z,73.59
2017-09-26T17:28:39.509Z,74.33
2017-09-26T17:31:06.906Z,73.54
2017-09-26T17:33:34.302Z,73.31
2017-09-26T17:36:01.694Z,74.27
2017-09-26T17:38:29.090Z,74.52
2017-09-26T17:40:56.558Z,75.37
2017-09-26T17:43:23.968Z,76.20
2017-09-26T17:45:51.368Z,76.37
2017-09-26T17:48:18.766Z,78.06
2017-09-26T17:50:46.163Z,79.22
2017-09-26T17:53:13.563Z,80.26
2017-09-26T17:55:40.950Z,81.08
2017-09-26T17:58:08.380Z,81.20
2017-09-26T18:00:35.808Z,80.82
2017-09-26T18:03:03.198Z,80.53
2017-09-26T18:05:30.707Z,80.48
2017-09-26T18:07:58.115Z,80.97
2017-09-26T18:10:25.514Z,81.27
2017-09-26T18:12:52.902Z,81.93
2017-09-26T18:15:20.303Z,81.28
2017-09-26T18:17:47.787Z,81.29
2017-09-26T18:20:15.190Z,81.73
2017-09-26T18:22:42.583Z,81.64
2017-09-26T18:25:09.974Z,82.27
2017-09-26T18:27:37.385Z,82.02
2017-09-26T18:30:04.861Z,81.79
2017-09-26T18:32:32.271Z,82.16
2017-09-26T18:34:59.674Z,82.61
2017-09-26T18:37:27.075Z,82.98
2017-09-26T18:39:54.474Z,82.46
2017-09-26T18:42:21.870Z,82.15
2017-09-26T18:44:49.270Z,82.14
2017-09-26T18:47:16.669Z,83.18
2017-09-26T18:49:44.063Z,83.55
2017-09-26T18:52:11.567Z,83.41
2017-09-26T18:54:38.967Z,83.66
2017-09-26T18:57:06.426Z,83.69
2017-09-26T18:59:33.835Z,83.56
2017-09-26T19:02:01.396Z,83.58
2017-09-26T19:04:28.782Z,83.50
2017-09-26T19:06:56.182Z,84.49
2017-09-26T19:09:23.578Z,85.20
2017-09-26T19:11:50.986Z,85.04
2017-09-26T19:14:18.388Z,85.08
2017-09-26T19:16:45.870Z,85.45
2017-09-26T19:19:13.258Z,85.48
2017-09-26T19:21:40.760Z,86.07
2017-09-26T19:24:08.178Z,86.51
2017-09-26T19:26:35.571Z,85.69
2017-09-26T19:29:02.970Z,86.05
2017-09-26T19:31:30.626Z,86.59
2017-09-26T19:33:58.192Z,86.66
2017-09-26T19:36:25.650Z,86.86
2017-09-26T19:38:53.046Z,86.18
2017-09-26T19:41:20.454Z,86.00
2017-09-26T19:43:47.848Z,84.93
2017-09-26T19:46:15.251Z,84.73
2017-09-26T19:48:42.650Z,84.91
2017-09-26T19:51:10.055Z,84.43
2017-09-26T19:53:37.562Z,83.18
2017-09-26T19:56:04.966Z,83.41
2017-09-26T19:58:32.371Z,83.20
2017-09-26T20:00:59.764Z,82.07
2017-09-26T20:03:27.262Z,82.35
2017-09-26T20:05:54.660Z,83.67
2017-09-26T20:08:22.061Z,83.55
2017-09-26T20:10:49.460Z,83.74
2017-09-26T20:13:16.858Z,84.14
2017-09-26T20:15:44.261Z,83.90
2017-09-26T20:18:11.662Z,83.59
2017-09-26T20:20:39.054Z,83.22
2017-09-26T20:23:06.458Z,84.67
2017-09-26T20:25:33.880Z,85.76
2017-09-26T20:28:01.280Z,86.65
2017-09-26T20:30:28.687Z,87.11
2017-09-26T20:32:56.098Z,87.08
2017-09-26T20:35:23.590Z,87.65
2017-09-26T20:37:51.052Z,87.80
2017-09-26T20:40:18.439Z,88.18
2017-09-26T20:42:45.842Z,88.05
2017-09-26T20:45:13.239Z,88.40
2017-09-26T20:47:40.638Z,88.16
2017-09-26T20:50:08.031Z,88.70
2017-09-26T20:52:35.430Z,88.78
2017-09-26T20:55:02.826Z,88.67
2017-09-26T20:57:30.222Z,88.23
2017-09-26T20:59:57.624Z,88.33
2017-09-26T21:02:25.026Z,88.58
2017-09-26T21:04:52.454Z,88.93
2017-09-26T21:07:19.850Z,89.33
2017-09-26T21:09:47.249Z,89.11
2017-09-26T21:12:14.646Z,89.22
2017-09-26T21:14:42.042Z,88.85
2017-09-26T21:17:09.439Z,88.81
2017-09-26T21:19:36.834Z,88.48
2017-09-26T21:22:04.334Z,88.13
2017-09-26T21:24:31.726Z,87.94
2017-09-26T21:26:59.122Z,87.87
2017-09-26T21:29:26.516Z,88.25
2017-09-26T21:31:53.910Z,88.20
2017-09-26T21:34:21.324Z,87.74
2017-09-26T21:36:48.710Z,87.85
2017-09-26T21:39:16.113Z,88.47
2017-09-26T21:41:43.510Z,89.04
2017-09-26T21:44:10.920Z,89.19
2017-09-26T21:49:12.115Z,89.41
2017-09-26T21:51:39.510Z,89.08
2017-09-26T21:54:06.917Z,89.34
2017-09-26T21:56:34.366Z,89.10
2017-09-26T21:59:01.763Z,88.31
2017-09-26T22:01:29.171Z,88.57
2017-09-26T22:03:56.584Z,88.96
2017-09-26T22:06:24.087Z,89.32
2017-09-26T22:08:51.478Z,89.20
2017-09-26T22:11:18.874Z,88.89
2017-09-26T22:13:46.275Z,88.66
2017-09-26T22:16:13.679Z,88.38
2017-09-26T22:18:41.103Z,88.41
2017-09-26T22:21:08.510Z,88.07
2017-09-26T22:23:35.909Z,88.29
2017-09-26T22:26:03.310Z,88.22
2017-09-26T22:28:30.703Z,88.00
2017-09-26T22:30:58.106Z,88.27
2017-09-26T22:33:25.506Z,88.33
2017-09-26T22:35:52.907Z,88.47
2017-09-26T22:38:20.414Z,88.55
2017-09-26T22:40:47.827Z,88.24
2017-09-26T22:43:15.224Z,88.07
2017-09-26T22:45:42.626Z,87.50
2017-09-26T22:48:10.024Z,87.81
2017-09-26T22:50:37.489Z,87.89
2017-09-26T22:53:13.447Z,87.97
2017-09-26T22:55:40.853Z,87.33
2017-09-26T22:58:08.254Z,87.20
2017-09-26T23:00:35.647Z,86.73
2017-09-26T23:03:03.045Z,86.75
2017-09-26T23:05:30.435Z,85.94
2017-09-26T23:07:57.848Z,85.92
2017-09-26T23:10:25.240Z,85.39
2017-09-26T23:12:52.642Z,85.78
2017-09-26T23:15:20.038Z,86.71
2017-09-26T23:17:47.450Z,87.14
2017-09-26T23:20:14.842Z,88.40
2017-09-26T23:28:27.931Z,90.13
2017-09-26T23:30:55.340Z,89.89
2017-09-26T23:33:22.726Z,89.84
2017-09-26T23:35:50.123Z,89.42
2017-09-26T23:38:17.521Z,89.40
2017-09-26T23:40:44.919Z,88.35
2017-09-26T23:43:12.318Z,87.64
2017-09-26T23:45:39.840Z,87.32
2017-09-26T23:48:07.247Z,86.95
2017-09-26T23:50:34.695Z,87.39
2017-09-26T23:53:02.107Z,86.94
2017-09-26T23:57:56.730Z,86.64
